sensor_id;sensor_type;location;lat;lon;timestamp;temperature;humidity
74484;SHT31;62942;52.462;10.846;2023-02-11T00:00:12;4.7;81.3
74484;SHT31;62942;52.462;10.846;2023-02-11T00:01:23;4.7;81.2
74484;SHT31;62942;52.462;10.846;2023-02-11T00:02:31;4.7;81.2
74484;SHT31;62942;52.462;10.846;2023-02-11T00:03:41;4.8;81.2
74484;SHT31;62942;52.462;10.846;2023-02-11T00:04:41;4.8;81.2
74484;SHT31;62942;52.462;10.846;2023-02-11T00:05:55;4.8;81.1
74484;SHT31;62942;52.462;10.846;2023-02-11T00:07:01;4.9;81.1
74484;SHT31;62942;52.462;10.846;2023-02-11T00:08:11;4.9;81
74484;SHT31;62942;52.462;10.846;2023-02-11T00:09:21;4.9;81.1
74484;SHT31;62942;52.462;10.846;2023-02-11T00:10:31;4.9;81
74484;SHT31;62942;52.462;10.846;2023-02-11T00:11:41;5;80.9
74484;SHT31;62942;52.462;10.846;2023-02-11T00:12:51;5;80.8
74484;SHT31;62942;52.462;10.846;2023-02-11T00:14:02;5;80.8
74484;SHT31;62942;52.462;10.846;2023-02-11T00:15:01;5;80.8
74484;SHT31;62942;52.462;10.846;2023-02-11T00:16:05;5.1;80.8
74484;SHT31;62942;52.462;10.846;2023-02-11T00:17:11;5.1;80.7
74484;SHT31;62942;52.462;10.846;2023-02-11T00:18:21;5.1;80.7
74484;SHT31;62942;52.462;10.846;2023-02-11T00:19:31;5.1;80.7
74484;SHT31;62942;52.462;10.846;2023-02-11T00:20:41;5.2;80.6
74484;SHT31;62942;52.462;10.846;2023-02-11T00:21:51;5.2;80.6
74484;SHT31;62942;52.462;10.846;2023-02-11T00:22:51;5.2;80.5
74484;SHT31;62942;52.462;10.846;2023-02-11T00:24:01;5.2;80.5
74484;SHT31;62942;52.462;10.846;2023-02-11T00:25:02;5.2;80.4
74484;SHT31;62942;52.462;10.846;2023-02-11T00:26:12;5.3;80.4
74484;SHT31;62942;52.462;10.846;2023-02-11T00:27:11;5.3;80.4
74484;SHT31;62942;52.462;10.846;2023-02-11T00:28:11;5.3;80.4
74484;SHT31;62942;52.462;10.846;2023-02-11T00:29:21;5.3;80.4
74484;SHT31;62942;52.462;10.846;2023-02-11T00:30:31;5.3;80.4
74484;SHT31;62942;52.462;10.846;2023-02-11T00:31:41;5.3;80.4
74484;SHT31;62942;52.462;10.846;2023-02-11T00:32:41;5.3;80.4
74484;SHT31;62942;52.462;10.846;2023-02-11T00:33:51;5.3;80.5
74484;SHT31;62942;52.462;10.846;2023-02-11T00:35:01;5.3;80.5
74484;SHT31;62942;52.462;10.846;2023-02-11T00:36:02;5.3;80.5
74484;SHT31;62942;52.462;10.846;2023-02-11T00:37:12;5.3;80.6
74484;SHT31;62942;52.462;10.846;2023-02-11T00:38:21;5.3;80.5
74484;SHT31;62942;52.462;10.846;2023-02-11T00:39:21;5.3;80.6
74484;SHT31;62942;52.462;10.846;2023-02-11T00:40:31;5.3;80.6
74484;SHT31;62942;52.462;10.846;2023-02-11T00:41:41;5.3;80.7
74484;SHT31;62942;52.462;10.846;2023-02-11T00:42:51;5.3;80.6
74484;SHT31;62942;52.462;10.846;2023-02-11T00:44:01;5.3;80.7
74484;SHT31;62942;52.462;10.846;2023-02-11T00:45:11;5.3;80.6
74484;SHT31;62942;52.462;10.846;2023-02-11T00:46:12;5.3;80.7
74484;SHT31;62942;52.462;10.846;2023-02-11T00:47:21;5.3;80.7
74484;SHT31;62942;52.462;10.846;2023-02-11T00:48:31;5.3;80.8
74484;SHT31;62942;52.462;10.846;2023-02-11T00:49:41;5.3;80.9
74484;SHT31;62942;52.462;10.846;2023-02-11T00:50:51;5.4;80.8
74484;SHT31;62942;52.462;10.846;2023-02-11T00:52:01;5.4;80.8
74484;SHT31;62942;52.462;10.846;2023-02-11T00:53:11;5.4;80.8
74484;SHT31;62942;52.462;10.846;2023-02-11T00:54:21;5.4;80.9
74484;SHT31;62942;52.462;10.846;2023-02-11T00:55:31;5.4;80.8
74484;SHT31;62942;52.462;10.846;2023-02-11T00:56:41;5.4;80.9
74484;SHT31;62942;52.462;10.846;2023-02-11T00:57:41;5.4;80.9
74484;SHT31;62942;52.462;10.846;2023-02-11T00:58:41;5.4;80.9
74484;SHT31;62942;52.462;10.846;2023-02-11T00:59:51;5.4;80.9
74484;SHT31;62942;52.462;10.846;2023-02-11T01:00:52;5.4;80.9
74484;SHT31;62942;52.462;10.846;2023-02-11T01:02:01;5.4;81
74484;SHT31;62942;52.462;10.846;2023-02-11T01:03:11;5.5;81.1
74484;SHT31;62942;52.462;10.846;2023-02-11T01:04:21;5.4;81.2
74484;SHT31;62942;52.462;10.846;2023-02-11T01:05:31;5.5;81.2
74484;SHT31;62942;52.462;10.846;2023-02-11T01:06:41;5.5;81.1
74484;SHT31;62942;52.462;10.846;2023-02-11T01:07:51;5.5;81.1
74484;SHT31;62942;52.462;10.846;2023-02-11T01:09:01;5.5;81.1
74484;SHT31;62942;52.462;10.846;2023-02-11T01:10:01;5.5;81.1
74484;SHT31;62942;52.462;10.846;2023-02-11T01:11:13;5.5;81.1
74484;SHT31;62942;52.462;10.846;2023-02-11T01:12:11;5.4;81.2
74484;SHT31;62942;52.462;10.846;2023-02-11T01:13:21;5.4;81.2
74484;SHT31;62942;52.462;10.846;2023-02-11T01:14:31;5.4;81.3
74484;SHT31;62942;52.462;10.846;2023-02-11T01:15:41;5.4;81.3
74484;SHT31;62942;52.462;10.846;2023-02-11T01:16:51;5.5;81.3
74484;SHT31;62942;52.462;10.846;2023-02-11T01:18:03;5.5;81.4
74484;SHT31;62942;52.462;10.846;2023-02-11T01:19:01;5.5;81.4
74484;SHT31;62942;52.462;10.846;2023-02-11T01:20:13;5.5;81.3
74484;SHT31;62942;52.462;10.846;2023-02-11T01:21:21;5.5;81.4
74484;SHT31;62942;52.462;10.846;2023-02-11T01:22:31;5.5;81.4
74484;SHT31;62942;52.462;10.846;2023-02-11T01:23:32;5.5;81.4
74484;SHT31;62942;52.462;10.846;2023-02-11T01:24:41;5.5;81.5
74484;SHT31;62942;52.462;10.846;2023-02-11T01:25:51;5.5;81.6
74484;SHT31;62942;52.462;10.846;2023-02-11T01:27:01;5.5;81.6
74484;SHT31;62942;52.462;10.846;2023-02-11T01:28:01;5.5;81.6
74484;SHT31;62942;52.462;10.846;2023-02-11T01:29:11;5.5;81.6
74484;SHT31;62942;52.462;10.846;2023-02-11T01:30:21;5.5;81.6
74484;SHT31;62942;52.462;10.846;2023-02-11T01:31:31;5.5;81.7
74484;SHT31;62942;52.462;10.846;2023-02-11T01:32:41;5.5;81.7
74484;SHT31;62942;52.462;10.846;2023-02-11T01:33:41;5.5;81.7
74484;SHT31;62942;52.462;10.846;2023-02-11T01:34:51;5.5;81.8
74484;SHT31;62942;52.462;10.846;2023-02-11T01:35:51;5.5;82
74484;SHT31;62942;52.462;10.846;2023-02-11T01:37:01;5.5;82
74484;SHT31;62942;52.462;10.846;2023-02-11T01:38:13;5.5;82.1
74484;SHT31;62942;52.462;10.846;2023-02-11T01:39:11;5.5;82.1
74484;SHT31;62942;52.462;10.846;2023-02-11T01:40:12;5.5;82
74484;SHT31;62942;52.462;10.846;2023-02-11T01:41:21;5.6;82.1
74484;SHT31;62942;52.462;10.846;2023-02-11T01:42:31;5.6;82.4
74484;SHT31;62942;52.462;10.846;2023-02-11T01:43:42;5.5;82.5
74484;SHT31;62942;52.462;10.846;2023-02-11T01:44:41;5.5;82.6
74484;SHT31;62942;52.462;10.846;2023-02-11T01:45:51;5.5;82.5
74484;SHT31;62942;52.462;10.846;2023-02-11T01:46:51;5.5;82.6
74484;SHT31;62942;52.462;10.846;2023-02-11T01:48:01;5.6;82.8
74484;SHT31;62942;52.462;10.846;2023-02-11T01:49:13;5.5;83
74484;SHT31;62942;52.462;10.846;2023-02-11T01:50:21;5.6;82.8
74484;SHT31;62942;52.462;10.846;2023-02-11T01:51:32;5.6;83
74484;SHT31;62942;52.462;10.846;2023-02-11T01:52:41;5.6;83.1
74484;SHT31;62942;52.462;10.846;2023-02-11T01:53:51;5.6;83
74484;SHT31;62942;52.462;10.846;2023-02-11T01:54:52;5.6;82.9
74484;SHT31;62942;52.462;10.846;2023-02-11T01:56:01;5.6;83.1
74484;SHT31;62942;52.462;10.846;2023-02-11T01:57:12;5.6;83.2
74484;SHT31;62942;52.462;10.846;2023-02-11T01:58:21;5.6;83.3
74484;SHT31;62942;52.462;10.846;2023-02-11T01:59:32;5.6;83.2
74484;SHT31;62942;52.462;10.846;2023-02-11T02:00:41;5.6;83.2
74484;SHT31;62942;52.462;10.846;2023-02-11T02:01:41;5.6;83.3
74484;SHT31;62942;52.462;10.846;2023-02-11T02:02:43;5.6;83.3
74484;SHT31;62942;52.462;10.846;2023-02-11T02:03:52;5.6;83.3
74484;SHT31;62942;52.462;10.846;2023-02-11T02:05:03;5.6;83.5
74484;SHT31;62942;52.462;10.846;2023-02-11T02:06:02;5.6;83.5
74484;SHT31;62942;52.462;10.846;2023-02-11T02:07:13;5.6;83.5
74484;SHT31;62942;52.462;10.846;2023-02-11T02:08:13;5.6;83.5
74484;SHT31;62942;52.462;10.846;2023-02-11T02:09:22;5.6;83.6
74484;SHT31;62942;52.462;10.846;2023-02-11T02:10:22;5.6;83.7
74484;SHT31;62942;52.462;10.846;2023-02-11T02:11:31;5.6;83.6
74484;SHT31;62942;52.462;10.846;2023-02-11T02:12:31;5.7;83.8
74484;SHT31;62942;52.462;10.846;2023-02-11T02:13:41;5.7;83.9
74484;SHT31;62942;52.462;10.846;2023-02-11T02:14:51;5.7;83.9
74484;SHT31;62942;52.462;10.846;2023-02-11T02:16:02;5.7;83.8
74484;SHT31;62942;52.462;10.846;2023-02-11T02:17:13;5.7;84
74484;SHT31;62942;52.462;10.846;2023-02-11T02:18:25;5.7;84
74484;SHT31;62942;52.462;10.846;2023-02-11T02:19:41;5.7;83.9
74484;SHT31;62942;52.462;10.846;2023-02-11T02:21:51;5.7;83.9
74484;SHT31;62942;52.462;10.846;2023-02-11T02:22:58;5.7;83.9
74484;SHT31;62942;52.462;10.846;2023-02-11T02:25:17;5.7;84
74484;SHT31;62942;52.462;10.846;2023-02-11T02:26:17;5.7;84
74484;SHT31;62942;52.462;10.846;2023-02-11T02:27:24;5.7;84
74484;SHT31;62942;52.462;10.846;2023-02-11T02:28:35;5.7;84
74484;SHT31;62942;52.462;10.846;2023-02-11T02:29:46;5.7;84.2
74484;SHT31;62942;52.462;10.846;2023-02-11T02:30:47;5.7;84.2
74484;SHT31;62942;52.462;10.846;2023-02-11T02:31:53;5.7;84
74484;SHT31;62942;52.462;10.846;2023-02-11T02:33:04;5.7;84.2
74484;SHT31;62942;52.462;10.846;2023-02-11T02:34:12;5.7;84.2
74484;SHT31;62942;52.462;10.846;2023-02-11T02:35:14;5.7;84.2
74484;SHT31;62942;52.462;10.846;2023-02-11T02:36:13;5.7;84.3
74484;SHT31;62942;52.462;10.846;2023-02-11T02:37:23;5.7;84.4
74484;SHT31;62942;52.462;10.846;2023-02-11T02:38:22;5.7;84.5
74484;SHT31;62942;52.462;10.846;2023-02-11T02:39:32;5.7;84.5
74484;SHT31;62942;52.462;10.846;2023-02-11T02:40:42;5.7;84.4
74484;SHT31;62942;52.462;10.846;2023-02-11T02:41:51;5.7;84.4
74484;SHT31;62942;52.462;10.846;2023-02-11T02:43:01;5.7;84.5
74484;SHT31;62942;52.462;10.846;2023-02-11T02:44:11;5.7;84.6
74484;SHT31;62942;52.462;10.846;2023-02-11T02:45:11;5.7;84.7
74484;SHT31;62942;52.462;10.846;2023-02-11T02:46:12;5.7;84.6
74484;SHT31;62942;52.462;10.846;2023-02-11T02:47:21;5.7;84.5
74484;SHT31;62942;52.462;10.846;2023-02-11T02:48:23;5.7;84.7
74484;SHT31;62942;52.462;10.846;2023-02-11T02:49:31;5.7;84.8
74484;SHT31;62942;52.462;10.846;2023-02-11T02:50:41;5.7;84.8
74484;SHT31;62942;52.462;10.846;2023-02-11T02:52:11;5.7;84.8
74484;SHT31;62942;52.462;10.846;2023-02-11T02:53:08;5.7;84.8
74484;SHT31;62942;52.462;10.846;2023-02-11T02:54:06;5.7;85
74484;SHT31;62942;52.462;10.846;2023-02-11T02:55:16;5.7;85
74484;SHT31;62942;52.462;10.846;2023-02-11T02:56:22;5.7;85.3
74484;SHT31;62942;52.462;10.846;2023-02-11T02:57:26;5.7;85.1
74484;SHT31;62942;52.462;10.846;2023-02-11T02:58:26;5.7;85.2
74484;SHT31;62942;52.462;10.846;2023-02-11T02:59:35;5.7;85.4
74484;SHT31;62942;52.462;10.846;2023-02-11T03:00:42;5.7;85.4
74484;SHT31;62942;52.462;10.846;2023-02-11T03:01:42;5.7;85.3
74484;SHT31;62942;52.462;10.846;2023-02-11T03:02:56;5.7;85.5
74484;SHT31;62942;52.462;10.846;2023-02-11T03:04:03;5.7;85.3
74484;SHT31;62942;52.462;10.846;2023-02-11T03:05:02;5.7;85.4
74484;SHT31;62942;52.462;10.846;2023-02-11T03:06:12;5.7;85.7
74484;SHT31;62942;52.462;10.846;2023-02-11T03:07:22;5.7;85.5
74484;SHT31;62942;52.462;10.846;2023-02-11T03:08:23;5.7;85.7
74484;SHT31;62942;52.462;10.846;2023-02-11T03:09:32;5.7;85.7
74484;SHT31;62942;52.462;10.846;2023-02-11T03:10:42;5.7;85.9
74484;SHT31;62942;52.462;10.846;2023-02-11T03:11:41;5.7;86
74484;SHT31;62942;52.462;10.846;2023-02-11T03:12:41;5.7;86.1
74484;SHT31;62942;52.462;10.846;2023-02-11T03:13:51;5.7;86
74484;SHT31;62942;52.462;10.846;2023-02-11T03:14:51;5.7;86
74484;SHT31;62942;52.462;10.846;2023-02-11T03:16:03;5.7;86.3
74484;SHT31;62942;52.462;10.846;2023-02-11T03:17:02;5.7;86.7
74484;SHT31;62942;52.462;10.846;2023-02-11T03:18:12;5.6;86.8
74484;SHT31;62942;52.462;10.846;2023-02-11T03:19:21;5.7;86.7
74484;SHT31;62942;52.462;10.846;2023-02-11T03:20:32;5.7;86.7
74484;SHT31;62942;52.462;10.846;2023-02-11T03:21:31;5.7;87
74484;SHT31;62942;52.462;10.846;2023-02-11T03:22:32;5.7;86.8
74484;SHT31;62942;52.462;10.846;2023-02-11T03:23:43;5.7;87
74484;SHT31;62942;52.462;10.846;2023-02-11T03:24:51;5.7;87.2
74484;SHT31;62942;52.462;10.846;2023-02-11T03:25:53;5.7;87.3
74484;SHT31;62942;52.462;10.846;2023-02-11T03:27:02;5.7;87.1
74484;SHT31;62942;52.462;10.846;2023-02-11T03:28:12;5.7;87.1
74484;SHT31;62942;52.462;10.846;2023-02-11T03:29:24;5.7;87.3
74484;SHT31;62942;52.462;10.846;2023-02-11T03:30:23;5.7;87.2
74484;SHT31;62942;52.462;10.846;2023-02-11T03:31:32;5.7;87.1
74484;SHT31;62942;52.462;10.846;2023-02-11T03:32:32;5.7;87.2
74484;SHT31;62942;52.462;10.846;2023-02-11T03:33:44;5.7;87.5
74484;SHT31;62942;52.462;10.846;2023-02-11T03:34:52;5.7;87.5
74484;SHT31;62942;52.462;10.846;2023-02-11T03:35:52;5.7;87.6
74484;SHT31;62942;52.462;10.846;2023-02-11T03:37:02;5.7;87.9
74484;SHT31;62942;52.462;10.846;2023-02-11T03:38:03;5.7;87.7
74484;SHT31;62942;52.462;10.846;2023-02-11T03:39:12;5.7;87.7
74484;SHT31;62942;52.462;10.846;2023-02-11T03:40:22;5.7;87.9
74484;SHT31;62942;52.462;10.846;2023-02-11T03:41:22;5.7;88.2
74484;SHT31;62942;52.462;10.846;2023-02-11T03:42:33;5.7;88.1
74484;SHT31;62942;52.462;10.846;2023-02-11T03:43:42;5.7;88.2
74484;SHT31;62942;52.462;10.846;2023-02-11T03:44:52;5.7;88.3
74484;SHT31;62942;52.462;10.846;2023-02-11T03:45:51;5.7;88.4
74484;SHT31;62942;52.462;10.846;2023-02-11T03:46:51;5.7;88.5
74484;SHT31;62942;52.462;10.846;2023-02-11T03:48:04;5.7;88.5
74484;SHT31;62942;52.462;10.846;2023-02-11T03:49:11;5.7;88.2
74484;SHT31;62942;52.462;10.846;2023-02-11T03:50:21;5.7;88.3
74484;SHT31;62942;52.462;10.846;2023-02-11T03:51:31;5.7;88.6
74484;SHT31;62942;52.462;10.846;2023-02-11T03:52:41;5.6;88.6
74484;SHT31;62942;52.462;10.846;2023-02-11T03:53:42;5.6;88.7
74484;SHT31;62942;52.462;10.846;2023-02-11T03:54:52;5.6;89.1
74484;SHT31;62942;52.462;10.846;2023-02-11T03:55:51;5.6;89.1
74484;SHT31;62942;52.462;10.846;2023-02-11T03:57:01;5.6;89
74484;SHT31;62942;52.462;10.846;2023-02-11T03:58:11;5.7;89.2
74484;SHT31;62942;52.462;10.846;2023-02-11T03:59:21;5.7;89.3
74484;SHT31;62942;52.462;10.846;2023-02-11T04:00:28;5.6;89.2
74484;SHT31;62942;52.462;10.846;2023-02-11T04:01:21;5.6;89
74484;SHT31;62942;52.462;10.846;2023-02-11T04:02:33;5.6;89.2
74484;SHT31;62942;52.462;10.846;2023-02-11T04:03:31;5.6;89.1
74484;SHT31;62942;52.462;10.846;2023-02-11T04:04:31;5.6;89.2
74484;SHT31;62942;52.462;10.846;2023-02-11T04:05:41;5.6;89.2
74484;SHT31;62942;52.462;10.846;2023-02-11T04:06:41;5.6;89.2
74484;SHT31;62942;52.462;10.846;2023-02-11T04:07:51;5.6;89.4
74484;SHT31;62942;52.462;10.846;2023-02-11T04:09:01;5.6;89.5
74484;SHT31;62942;52.462;10.846;2023-02-11T04:10:11;5.6;89.6
74484;SHT31;62942;52.462;10.846;2023-02-11T04:11:11;5.6;89.6
74484;SHT31;62942;52.462;10.846;2023-02-11T04:12:21;5.6;89.6
74484;SHT31;62942;52.462;10.846;2023-02-11T04:13:21;5.6;89.4
74484;SHT31;62942;52.462;10.846;2023-02-11T04:14:31;5.7;89.5
74484;SHT31;62942;52.462;10.846;2023-02-11T04:15:41;5.7;89.4
74484;SHT31;62942;52.462;10.846;2023-02-11T04:16:51;5.7;89.4
74484;SHT31;62942;52.462;10.846;2023-02-11T04:17:51;5.7;89.4
74484;SHT31;62942;52.462;10.846;2023-02-11T04:19:01;5.7;89.4
74484;SHT31;62942;52.462;10.846;2023-02-11T04:20:11;5.7;89.3
74484;SHT31;62942;52.462;10.846;2023-02-11T04:21:21;5.7;89.3
74484;SHT31;62942;52.462;10.846;2023-02-11T04:22:21;5.7;89.3
74484;SHT31;62942;52.462;10.846;2023-02-11T04:23:21;5.7;89.3
74484;SHT31;62942;52.462;10.846;2023-02-11T04:24:21;5.7;89.3
74484;SHT31;62942;52.462;10.846;2023-02-11T04:25:31;5.7;89.2
74484;SHT31;62942;52.462;10.846;2023-02-11T04:26:41;5.7;89.1
74484;SHT31;62942;52.462;10.846;2023-02-11T04:27:51;5.7;89.2
74484;SHT31;62942;52.462;10.846;2023-02-11T04:29:01;5.7;89.3
74484;SHT31;62942;52.462;10.846;2023-02-11T04:30:11;5.7;89.3
74484;SHT31;62942;52.462;10.846;2023-02-11T04:31:11;5.8;89.3
74484;SHT31;62942;52.462;10.846;2023-02-11T04:32:21;5.8;89.3
74484;SHT31;62942;52.462;10.846;2023-02-11T04:33:31;5.7;89.3
74484;SHT31;62942;52.462;10.846;2023-02-11T04:34:31;5.8;89.3
74484;SHT31;62942;52.462;10.846;2023-02-11T04:35:41;5.8;89.3
74484;SHT31;62942;52.462;10.846;2023-02-11T04:36:51;5.8;89.4
74484;SHT31;62942;52.462;10.846;2023-02-11T04:38:01;5.8;89.3
74484;SHT31;62942;52.462;10.846;2023-02-11T04:39:11;5.8;89.2
74484;SHT31;62942;52.462;10.846;2023-02-11T04:40:11;5.8;89.3
74484;SHT31;62942;52.462;10.846;2023-02-11T04:41:21;5.8;89.2
74484;SHT31;62942;52.462;10.846;2023-02-11T04:42:31;5.8;89.3
74484;SHT31;62942;52.462;10.846;2023-02-11T04:43:41;5.8;89.4
74484;SHT31;62942;52.462;10.846;2023-02-11T04:44:51;5.8;89.4
74484;SHT31;62942;52.462;10.846;2023-02-11T04:45:51;5.8;89.4
74484;SHT31;62942;52.462;10.846;2023-02-11T04:46:51;5.8;89.3
74484;SHT31;62942;52.462;10.846;2023-02-11T04:48:01;5.8;89.3
74484;SHT31;62942;52.462;10.846;2023-02-11T04:49:11;5.8;89.3
74484;SHT31;62942;52.462;10.846;2023-02-11T04:50:11;5.8;89.3
74484;SHT31;62942;52.462;10.846;2023-02-11T04:51:11;5.8;89.3
74484;SHT31;62942;52.462;10.846;2023-02-11T04:52:21;5.8;89.3
74484;SHT31;62942;52.462;10.846;2023-02-11T04:53:31;5.8;89.3
74484;SHT31;62942;52.462;10.846;2023-02-11T04:54:41;5.9;89.4
74484;SHT31;62942;52.462;10.846;2023-02-11T04:55:41;5.9;89.2
74484;SHT31;62942;52.462;10.846;2023-02-11T04:56:51;5.9;89.3
74484;SHT31;62942;52.462;10.846;2023-02-11T04:58:01;5.9;89.2
74484;SHT31;62942;52.462;10.846;2023-02-11T04:59:01;5.9;89.3
74484;SHT31;62942;52.462;10.846;2023-02-11T05:00:11;5.9;89.3
74484;SHT31;62942;52.462;10.846;2023-02-11T05:01:12;5.9;89.2
74484;SHT31;62942;52.462;10.846;2023-02-11T05:02:21;5.9;89.2
74484;SHT31;62942;52.462;10.846;2023-02-11T05:03:31;5.9;89.2
74484;SHT31;62942;52.462;10.846;2023-02-11T05:04:31;5.9;89.3
74484;SHT31;62942;52.462;10.846;2023-02-11T05:05:41;5.9;89.3
74484;SHT31;62942;52.462;10.846;2023-02-11T05:06:51;5.9;89.2
74484;SHT31;62942;52.462;10.846;2023-02-11T05:07:51;5.9;89.1
74484;SHT31;62942;52.462;10.846;2023-02-11T05:09:01;5.9;89.1
74484;SHT31;62942;52.462;10.846;2023-02-11T05:10:01;5.9;89.3
74484;SHT31;62942;52.462;10.846;2023-02-11T05:11:13;6;89.4
74484;SHT31;62942;52.462;10.846;2023-02-11T05:12:11;6;89.2
74484;SHT31;62942;52.462;10.846;2023-02-11T05:13:21;6;89.1
74484;SHT31;62942;52.462;10.846;2023-02-11T05:14:31;6;89.1
74484;SHT31;62942;52.462;10.846;2023-02-11T05:15:31;6;89.2
74484;SHT31;62942;52.462;10.846;2023-02-11T05:16:41;6;89.1
74484;SHT31;62942;52.462;10.846;2023-02-11T05:17:51;6;89.2
74484;SHT31;62942;52.462;10.846;2023-02-11T05:18:51;6;89.2
74484;SHT31;62942;52.462;10.846;2023-02-11T05:19:51;6;89.1
74484;SHT31;62942;52.462;10.846;2023-02-11T05:20:51;6;89.1
74484;SHT31;62942;52.462;10.846;2023-02-11T05:22:01;6;89.2
74484;SHT31;62942;52.462;10.846;2023-02-11T05:23:11;5.9;89.3
74484;SHT31;62942;52.462;10.846;2023-02-11T05:24:21;5.9;89.2
74484;SHT31;62942;52.462;10.846;2023-02-11T05:25:31;5.9;89.3
74484;SHT31;62942;52.462;10.846;2023-02-11T05:26:31;5.9;89.4
74484;SHT31;62942;52.462;10.846;2023-02-11T05:27:41;5.9;89.3
74484;SHT31;62942;52.462;10.846;2023-02-11T05:28:41;5.9;89.4
74484;SHT31;62942;52.462;10.846;2023-02-11T05:29:51;5.9;89.3
74484;SHT31;62942;52.462;10.846;2023-02-11T05:30:51;5.9;89.4
74484;SHT31;62942;52.462;10.846;2023-02-11T05:32:01;5.9;89.5
74484;SHT31;62942;52.462;10.846;2023-02-11T05:33:11;5.9;89.6
74484;SHT31;62942;52.462;10.846;2023-02-11T05:34:11;5.9;89.5
74484;SHT31;62942;52.462;10.846;2023-02-11T05:35:21;5.9;89.6
74484;SHT31;62942;52.462;10.846;2023-02-11T05:36:31;5.9;89.7
74484;SHT31;62942;52.462;10.846;2023-02-11T05:37:31;5.8;89.7
74484;SHT31;62942;52.462;10.846;2023-02-11T05:38:41;5.9;89.5
74484;SHT31;62942;52.462;10.846;2023-02-11T05:39:41;5.9;89.7
74484;SHT31;62942;52.462;10.846;2023-02-11T05:40:51;5.9;89.7
74484;SHT31;62942;52.462;10.846;2023-02-11T05:42:01;5.9;89.9
74484;SHT31;62942;52.462;10.846;2023-02-11T05:43:01;5.9;89.7
74484;SHT31;62942;52.462;10.846;2023-02-11T05:44:01;5.8;89.8
74484;SHT31;62942;52.462;10.846;2023-02-11T05:45:11;5.9;89.9
74484;SHT31;62942;52.462;10.846;2023-02-11T05:46:11;5.8;89.9
74484;SHT31;62942;52.462;10.846;2023-02-11T05:47:21;5.8;89.8
74484;SHT31;62942;52.462;10.846;2023-02-11T05:48:31;5.8;90
74484;SHT31;62942;52.462;10.846;2023-02-11T05:49:31;5.8;90
74484;SHT31;62942;52.462;10.846;2023-02-11T05:50:41;5.8;90.1
74484;SHT31;62942;52.462;10.846;2023-02-11T05:51:51;5.8;90.1
74484;SHT31;62942;52.462;10.846;2023-02-11T05:52:51;5.8;90.2
74484;SHT31;62942;52.462;10.846;2023-02-11T05:54:01;5.9;90.3
74484;SHT31;62942;52.462;10.846;2023-02-11T05:55:01;5.8;90.3
74484;SHT31;62942;52.462;10.846;2023-02-11T05:56:11;5.8;90.2
74484;SHT31;62942;52.462;10.846;2023-02-11T05:57:21;5.8;90.4
74484;SHT31;62942;52.462;10.846;2023-02-11T05:58:31;5.9;90.3
74484;SHT31;62942;52.462;10.846;2023-02-11T05:59:31;5.8;90.3
74484;SHT31;62942;52.462;10.846;2023-02-11T06:00:41;5.8;90.2
74484;SHT31;62942;52.462;10.846;2023-02-11T06:01:51;5.8;90.2
74484;SHT31;62942;52.462;10.846;2023-02-11T06:02:51;5.8;90.2
74484;SHT31;62942;52.462;10.846;2023-02-11T06:04:01;5.8;90.5
74484;SHT31;62942;52.462;10.846;2023-02-11T06:05:11;5.8;90.4
74484;SHT31;62942;52.462;10.846;2023-02-11T06:06:11;5.8;90.5
74484;SHT31;62942;52.462;10.846;2023-02-11T06:07:11;5.8;90.5
74484;SHT31;62942;52.462;10.846;2023-02-11T06:08:21;5.9;90.6
74484;SHT31;62942;52.462;10.846;2023-02-11T06:09:21;5.9;90.6
74484;SHT31;62942;52.462;10.846;2023-02-11T06:10:31;5.8;90.5
74484;SHT31;62942;52.462;10.846;2023-02-11T06:11:41;5.9;90.4
74484;SHT31;62942;52.462;10.846;2023-02-11T06:12:41;5.9;90.5
74484;SHT31;62942;52.462;10.846;2023-02-11T06:13:51;5.8;90.4
74484;SHT31;62942;52.462;10.846;2023-02-11T06:15:01;5.9;90.5
74484;SHT31;62942;52.462;10.846;2023-02-11T06:16:01;5.9;90.6
74484;SHT31;62942;52.462;10.846;2023-02-11T06:17:11;5.9;90.7
74484;SHT31;62942;52.462;10.846;2023-02-11T06:18:21;5.9;90.7
74484;SHT31;62942;52.462;10.846;2023-02-11T06:19:21;5.9;90.6
74484;SHT31;62942;52.462;10.846;2023-02-11T06:20:31;5.9;90.6
74484;SHT31;62942;52.462;10.846;2023-02-11T06:21:41;5.9;90.5
74484;SHT31;62942;52.462;10.846;2023-02-11T06:22:51;5.9;90.7
74484;SHT31;62942;52.462;10.846;2023-02-11T06:23:51;5.9;90.7
74484;SHT31;62942;52.462;10.846;2023-02-11T06:25:01;5.9;90.7
74484;SHT31;62942;52.462;10.846;2023-02-11T06:26:01;5.9;90.5
74484;SHT31;62942;52.462;10.846;2023-02-11T06:27:11;5.9;90.6
74484;SHT31;62942;52.462;10.846;2023-02-11T06:28:21;5.9;90.6
74484;SHT31;62942;52.462;10.846;2023-02-11T06:29:31;6;90.6
74484;SHT31;62942;52.462;10.846;2023-02-11T06:30:31;5.9;90.6
74484;SHT31;62942;52.462;10.846;2023-02-11T06:31:41;6;90.6
74484;SHT31;62942;52.462;10.846;2023-02-11T06:32:41;6;90.6
74484;SHT31;62942;52.462;10.846;2023-02-11T06:33:41;6;90.6
74484;SHT31;62942;52.462;10.846;2023-02-11T06:34:41;6;90.5
74484;SHT31;62942;52.462;10.846;2023-02-11T06:35:51;6;90.5
74484;SHT31;62942;52.462;10.846;2023-02-11T06:36:51;6;90.5
74484;SHT31;62942;52.462;10.846;2023-02-11T06:37:51;6;90.6
74484;SHT31;62942;52.462;10.846;2023-02-11T06:39:01;6;90.6
74484;SHT31;62942;52.462;10.846;2023-02-11T06:40:01;6;90.5
74484;SHT31;62942;52.462;10.846;2023-02-11T06:41:11;6;90.6
74484;SHT31;62942;52.462;10.846;2023-02-11T06:42:21;6;90.6
74484;SHT31;62942;52.462;10.846;2023-02-11T06:43:21;6;90.6
74484;SHT31;62942;52.462;10.846;2023-02-11T06:44:31;6;90.5
74484;SHT31;62942;52.462;10.846;2023-02-11T06:45:41;6;90.5
74484;SHT31;62942;52.462;10.846;2023-02-11T06:46:41;6.1;90.5
74484;SHT31;62942;52.462;10.846;2023-02-11T06:47:51;6;90.5
74484;SHT31;62942;52.462;10.846;2023-02-11T06:49:01;6;90.5
74484;SHT31;62942;52.462;10.846;2023-02-11T06:50:12;6.1;90.4
74484;SHT31;62942;52.462;10.846;2023-02-11T06:51:12;6;90.4
74484;SHT31;62942;52.462;10.846;2023-02-11T06:52:21;6.1;90.5
74484;SHT31;62942;52.462;10.846;2023-02-11T06:53:33;6.1;90.5
74484;SHT31;62942;52.462;10.846;2023-02-11T06:54:31;6.1;90.4
74484;SHT31;62942;52.462;10.846;2023-02-11T06:55:41;6.1;90.4
74484;SHT31;62942;52.462;10.846;2023-02-11T06:56:51;6.1;90.3
74484;SHT31;62942;52.462;10.846;2023-02-11T06:58:01;6.1;90.3
74484;SHT31;62942;52.462;10.846;2023-02-11T06:59:11;6.1;90.3
74484;SHT31;62942;52.462;10.846;2023-02-11T07:00:21;6.1;90.2
74484;SHT31;62942;52.462;10.846;2023-02-11T07:01:21;6.1;90.2
74484;SHT31;62942;52.462;10.846;2023-02-11T07:02:31;6.1;90.2
74484;SHT31;62942;52.462;10.846;2023-02-11T07:03:41;6.1;90.1
74484;SHT31;62942;52.462;10.846;2023-02-11T07:04:51;6.2;90.1
74484;SHT31;62942;52.462;10.846;2023-02-11T07:06:01;6.2;90
74484;SHT31;62942;52.462;10.846;2023-02-11T07:07:11;6.2;90.1
74484;SHT31;62942;52.462;10.846;2023-02-11T07:08:21;6.2;90.1
74484;SHT31;62942;52.462;10.846;2023-02-11T07:09:31;6.2;90
74484;SHT31;62942;52.462;10.846;2023-02-11T07:10:41;6.2;90
74484;SHT31;62942;52.462;10.846;2023-02-11T07:11:51;6.2;89.9
74484;SHT31;62942;52.462;10.846;2023-02-11T07:13:01;6.2;89.9
74484;SHT31;62942;52.462;10.846;2023-02-11T07:14:01;6.2;89.8
74484;SHT31;62942;52.462;10.846;2023-02-11T07:15:11;6.2;89.8
74484;SHT31;62942;52.462;10.846;2023-02-11T07:16:21;6.3;89.8
74484;SHT31;62942;52.462;10.846;2023-02-11T07:17:21;6.3;89.8
74484;SHT31;62942;52.462;10.846;2023-02-11T07:18:31;6.3;89.7
74484;SHT31;62942;52.462;10.846;2023-02-11T07:19:41;6.3;89.7